ADDS METAR Data INFO
IDs: Format: Raw Decoded Include TAF

Data at: 0040 UTC 21 Jan 2018

METAR for:KSFO (San Francisco Intl, CA, US)
Text:KSFO 202356Z 29012KT 10SM FEW025 SCT200 13/04 A3019 RMK AO2 SLP222 T01280044 10133 20106 53005
Temperature: 12.8°C ( 55°F)
Dewpoint: 4.4°C ( 40°F) [RH = 57%]
Pressure (altimeter):30.19 inches Hg (1022.4 mb) [Sea level pressure: 1022.2 mb]
Winds:from the WNW (290 degrees) at 14 MPH (12 knots; 6.2 m/s)
Visibility:10 or more sm (16+ km)
Ceiling:at least 12,000 feet AGL
Clouds: few clouds at 2500 feet AGL, scattered clouds at 20000 feet AGL
Text:KSFO 202256Z 30011KT 10SM FEW025 FEW200 13/04 A3018 RMK AO2 SLP218 T01280044
Temperature: 12.8°C ( 55°F)
Dewpoint: 4.4°C ( 40°F) [RH = 57%]
Pressure (altimeter):30.18 inches Hg (1022.1 mb) [Sea level pressure: 1021.8 mb]
Winds:from the WNW (300 degrees) at 13 MPH (11 knots; 5.7 m/s)
Visibility:10 or more sm (16+ km)
Ceiling:at least 12,000 feet AGL
Clouds: few clouds at 2500 feet AGL, few clouds at 20000 feet AGL
Text:KSFO 202156Z 28011KT 10SM FEW028 13/03 A3017 RMK AO2 SLP215 T01330033
Temperature: 13.3°C ( 56°F)
Dewpoint: 3.3°C ( 38°F) [RH = 51%]
Pressure (altimeter):30.17 inches Hg (1021.8 mb) [Sea level pressure: 1021.5 mb]
Winds:from the W (280 degrees) at 13 MPH (11 knots; 5.7 m/s)
Visibility:10 or more sm (16+ km)
Ceiling:at least 12,000 feet AGL
Clouds: few clouds at 2800 feet AGL
Text:KSFO 202056Z 05004KT 10SM FEW027 12/04 A3017 RMK AO2 SLP218 T01170044 58008
Temperature: 11.7°C ( 53°F)
Dewpoint: 4.4°C ( 40°F) [RH = 61%]
Pressure (altimeter):30.17 inches Hg (1021.8 mb) [Sea level pressure: 1021.8 mb]
Winds:from the NE (50 degrees) at 5 MPH (4 knots; 2.1 m/s)
Visibility:10 or more sm (16+ km)
Ceiling:at least 12,000 feet AGL
Clouds: few clouds at 2700 feet AGL
Text:KSFO 201956Z 05004KT 10SM FEW027 11/04 A3018 RMK AO2 SLP221 T01110044
Temperature: 11.1°C ( 52°F)
Dewpoint: 4.4°C ( 40°F) [RH = 63%]
Pressure (altimeter):30.18 inches Hg (1022.1 mb) [Sea level pressure: 1022.1 mb]
Winds:from the NE (50 degrees) at 5 MPH (4 knots; 2.1 m/s)
Visibility:10 or more sm (16+ km)
Ceiling:at least 12,000 feet AGL
Clouds: few clouds at 2700 feet AGL
Text:KSFO 201856Z 04004KT 10SM CLR 11/04 A3021 RMK AO2 SLP228 T01060044
Temperature: 10.6°C ( 51°F)
Dewpoint: 4.4°C ( 40°F) [RH = 65%]
Pressure (altimeter):30.21 inches Hg (1023.1 mb) [Sea level pressure: 1022.8 mb]
Winds:from the NE (40 degrees) at 5 MPH (4 knots; 2.1 m/s)
Visibility:10 or more sm (16+ km)
Ceiling:at least 12,000 feet AGL
Clouds:sky clear below 12,000 feet AGL
Text:KSFO 201756Z 03004KT 10SM CLR 11/04 A3020 RMK AO2 SLP226 T01060039 10106 20078 53020
Temperature: 10.6°C ( 51°F)
Dewpoint: 3.9°C ( 39°F) [RH = 63%]
Pressure (altimeter):30.20 inches Hg (1022.8 mb) [Sea level pressure: 1022.6 mb]
Winds:from the NNE (30 degrees) at 5 MPH (4 knots; 2.1 m/s)
Visibility:10 or more sm (16+ km)
Ceiling:at least 12,000 feet AGL
Clouds:sky clear below 12,000 feet AGL
Text:KSFO 201656Z 00000KT 10SM CLR 10/04 A3018 RMK AO2 SLP219 T01000044
Temperature: 10.0°C ( 50°F)
Dewpoint: 4.4°C ( 40°F) [RH = 68%]
Pressure (altimeter):30.18 inches Hg (1022.1 mb) [Sea level pressure: 1021.9 mb]
Winds:calm
Visibility:10 or more sm (16+ km)
Ceiling:at least 12,000 feet AGL
Clouds:sky clear below 12,000 feet AGL
Text:KSFO 201556Z 36005KT 10SM CLR 09/04 A3016 RMK AO2 SLP212 T00940039
Temperature: 9.4°C ( 49°F)
Dewpoint: 3.9°C ( 39°F) [RH = 68%]
Pressure (altimeter):30.16 inches Hg (1021.4 mb) [Sea level pressure: 1021.2 mb]
Winds:from the N (360 degrees) at 6 MPH (5 knots; 2.6 m/s)
Visibility:10 or more sm (16+ km)
Ceiling:at least 12,000 feet AGL
Clouds:sky clear below 12,000 feet AGL
Text:KSFO 201456Z 32007KT 10SM CLR 09/03 A3014 RMK AO2 SLP206 T00890028 51010
Temperature: 8.9°C ( 48°F)
Dewpoint: 2.8°C ( 37°F) [RH = 66%]
Pressure (altimeter):30.14 inches Hg (1020.7 mb) [Sea level pressure: 1020.6 mb]
Winds:from the NW (320 degrees) at 8 MPH (7 knots; 3.6 m/s)
Visibility:10 or more sm (16+ km)
Ceiling:at least 12,000 feet AGL
Clouds:sky clear below 12,000 feet AGL
Text:KSFO 201356Z 29008KT 10SM CLR 08/02 A3014 RMK AO2 SLP204 T00780022
Temperature: 7.8°C ( 46°F)
Dewpoint: 2.2°C ( 36°F) [RH = 68%]
Pressure (altimeter):30.14 inches Hg (1020.7 mb) [Sea level pressure: 1020.4 mb]
Winds:from the WNW (290 degrees) at 9 MPH (8 knots; 4.1 m/s)
Visibility:10 or more sm (16+ km)
Ceiling:at least 12,000 feet AGL
Clouds:sky clear below 12,000 feet AGL
Text:KSFO 201256Z 30008KT 10SM CLR 08/02 A3012 RMK AO2 SLP199 T00830022
Temperature: 8.3°C ( 47°F)
Dewpoint: 2.2°C ( 36°F) [RH = 65%]
Pressure (altimeter):30.12 inches Hg (1020.1 mb) [Sea level pressure: 1019.9 mb]
Winds:from the WNW (300 degrees) at 9 MPH (8 knots; 4.1 m/s)
Visibility:10 or more sm (16+ km)
Ceiling:at least 12,000 feet AGL
Clouds:sky clear below 12,000 feet AGL